sensor_id;sensor_type;location;lat;lon;timestamp;pressure;altitude;pressure_sealevel;temperature;humidity
38630;BME280;24384;51.988;4.644;2023-07-31T00:00:52;100982.88;;;16.37;100.00
38630;BME280;24384;51.988;4.644;2023-07-31T00:03:17;100984.84;;;16.33;100.00
38630;BME280;24384;51.988;4.644;2023-07-31T00:05:44;100984.16;;;16.29;100.00
38630;BME280;24384;51.988;4.644;2023-07-31T00:08:10;100971.81;;;16.28;100.00
38630;BME280;24384;51.988;4.644;2023-07-31T00:10:35;100979.97;;;16.25;100.00
38630;BME280;24384;51.988;4.644;2023-07-31T00:13:01;100980.22;;;16.21;100.00
38630;BME280;24384;51.988;4.644;2023-07-31T00:15:26;100973.25;;;16.18;100.00
38630;BME280;24384;51.988;4.644;2023-07-31T00:17:51;100972.22;;;16.21;100.00
38630;BME280;24384;51.988;4.644;2023-07-31T00:20:16;100986.63;;;16.17;100.00
38630;BME280;24384;51.988;4.644;2023-07-31T00:22:42;100975.22;;;16.15;100.00
38630;BME280;24384;51.988;4.644;2023-07-31T00:25:07;100979.81;;;16.11;100.00
38630;BME280;24384;51.988;4.644;2023-07-31T00:27:33;100980.72;;;16.11;100.00
38630;BME280;24384;51.988;4.644;2023-07-31T00:29:58;100967.50;;;16.10;100.00
38630;BME280;24384;51.988;4.644;2023-07-31T00:32:23;100972.97;;;16.07;100.00
38630;BME280;24384;51.988;4.644;2023-07-31T00:34:48;100969.34;;;16.08;100.00
38630;BME280;24384;51.988;4.644;2023-07-31T00:37:14;100975.38;;;16.11;100.00
38630;BME280;24384;51.988;4.644;2023-07-31T00:39:40;100976.31;;;16.10;100.00
38630;BME280;24384;51.988;4.644;2023-07-31T00:42:06;100974.59;;;16.09;100.00
38630;BME280;24384;51.988;4.644;2023-07-31T00:44:31;100978.97;;;16.10;100.00
38630;BME280;24384;51.988;4.644;2023-07-31T00:46:58;100976.56;;;16.06;100.00
38630;BME280;24384;51.988;4.644;2023-07-31T00:49:24;100965.00;;;16.07;100.00
38630;BME280;24384;51.988;4.644;2023-07-31T00:51:50;100973.06;;;16.05;100.00
38630;BME280;24384;51.988;4.644;2023-07-31T00:54:16;100957.34;;;16.01;100.00
38630;BME280;24384;51.988;4.644;2023-07-31T00:56:44;100966.94;;;16.03;100.00
38630;BME280;24384;51.988;4.644;2023-07-31T00:59:10;100967.75;;;16.05;100.00
38630;BME280;24384;51.988;4.644;2023-07-31T01:01:35;100967.75;;;16.05;100.00
38630;BME280;24384;51.988;4.644;2023-07-31T01:04:01;100972.41;;;16.00;100.00
38630;BME280;24384;51.988;4.644;2023-07-31T01:06:50;100964.44;;;16.00;100.00
38630;BME280;24384;51.988;4.644;2023-07-31T01:09:29;100972.59;;;15.97;100.00
38630;BME280;24384;51.988;4.644;2023-07-31T01:12:01;100967.34;;;15.96;100.00
38630;BME280;24384;51.988;4.644;2023-07-31T01:14:26;100972.63;;;15.80;100.00
38630;BME280;24384;51.988;4.644;2023-07-31T01:16:52;100970.34;;;15.72;100.00
38630;BME280;24384;51.988;4.644;2023-07-31T01:19:20;100964.59;;;15.64;100.00
38630;BME280;24384;51.988;4.644;2023-07-31T01:24:54;100965.28;;;15.67;100.00
38630;BME280;24384;51.988;4.644;2023-07-31T01:27:30;100968.72;;;15.69;100.00
38630;BME280;24384;51.988;4.644;2023-07-31T01:30:03;100955.06;;;15.77;100.00
38630;BME280;24384;51.988;4.644;2023-07-31T01:32:39;100954.03;;;15.80;100.00
38630;BME280;24384;51.988;4.644;2023-07-31T01:35:06;100954.63;;;15.85;100.00
38630;BME280;24384;51.988;4.644;2023-07-31T01:37:31;100944.78;;;15.87;100.00
38630;BME280;24384;51.988;4.644;2023-07-31T01:39:56;100948.13;;;15.90;100.00
38630;BME280;24384;51.988;4.644;2023-07-31T01:42:21;100952.44;;;15.93;100.00
38630;BME280;24384;51.988;4.644;2023-07-31T01:44:47;100946.94;;;15.96;100.00
38630;BME280;24384;51.988;4.644;2023-07-31T01:47:12;100946.69;;;16.01;100.00
38630;BME280;24384;51.988;4.644;2023-07-31T01:49:37;100940.34;;;16.03;100.00
38630;BME280;24384;51.988;4.644;2023-07-31T01:52:03;100938.47;;;16.05;100.00
38630;BME280;24384;51.988;4.644;2023-07-31T01:54:28;100930.50;;;16.05;100.00
38630;BME280;24384;51.988;4.644;2023-07-31T01:56:53;100926.09;;;16.04;100.00
38630;BME280;24384;51.988;4.644;2023-07-31T01:59:19;100927.84;;;16.05;100.00
38630;BME280;24384;51.988;4.644;2023-07-31T02:01:44;100924.03;;;16.09;100.00
38630;BME280;24384;51.988;4.644;2023-07-31T02:04:09;100909.63;;;16.14;100.00
38630;BME280;24384;51.988;4.644;2023-07-31T02:06:34;100908.06;;;16.09;100.00
38630;BME280;24384;51.988;4.644;2023-07-31T02:09:00;100894.94;;;16.06;100.00
38630;BME280;24384;51.988;4.644;2023-07-31T02:11:25;100897.59;;;16.06;100.00
38630;BME280;24384;51.988;4.644;2023-07-31T02:13:50;100889.63;;;16.06;100.00
38630;BME280;24384;51.988;4.644;2023-07-31T02:16:15;100882.59;;;16.05;100.00
38630;BME280;24384;51.988;4.644;2023-07-31T02:18:41;100893.84;;;16.10;100.00
38630;BME280;24384;51.988;4.644;2023-07-31T02:21:06;100881.47;;;16.09;100.00
38630;BME280;24384;51.988;4.644;2023-07-31T02:23:31;100877.72;;;16.14;100.00
38630;BME280;24384;51.988;4.644;2023-07-31T02:25:56;100904.16;;;16.17;100.00
38630;BME280;24384;51.988;4.644;2023-07-31T02:28:22;100881.03;;;16.17;100.00
38630;BME280;24384;51.988;4.644;2023-07-31T02:30:47;100896.16;;;16.17;100.00
38630;BME280;24384;51.988;4.644;2023-07-31T02:33:12;100895.41;;;16.15;100.00
38630;BME280;24384;51.988;4.644;2023-07-31T02:35:37;100878.56;;;16.14;100.00
38630;BME280;24384;51.988;4.644;2023-07-31T02:38:03;100884.41;;;16.21;100.00
38630;BME280;24384;51.988;4.644;2023-07-31T02:40:28;100879.25;;;16.18;100.00
38630;BME280;24384;51.988;4.644;2023-07-31T02:42:53;100882.78;;;16.18;100.00
38630;BME280;24384;51.988;4.644;2023-07-31T02:45:18;100875.63;;;16.19;100.00
38630;BME280;24384;51.988;4.644;2023-07-31T02:47:44;100879.09;;;16.21;100.00
38630;BME280;24384;51.988;4.644;2023-07-31T02:50:09;100878.03;;;16.23;100.00
38630;BME280;24384;51.988;4.644;2023-07-31T02:52:34;100883.44;;;16.22;100.00
38630;BME280;24384;51.988;4.644;2023-07-31T02:55:00;100876.25;;;16.24;100.00
38630;BME280;24384;51.988;4.644;2023-07-31T02:57:25;100873.69;;;16.22;100.00
38630;BME280;24384;51.988;4.644;2023-07-31T02:59:50;100855.16;;;16.21;100.00
38630;BME280;24384;51.988;4.644;2023-07-31T03:02:15;100846.91;;;16.25;100.00
38630;BME280;24384;51.988;4.644;2023-07-31T03:04:41;100852.41;;;16.22;100.00
38630;BME280;24384;51.988;4.644;2023-07-31T03:07:06;100847.94;;;16.23;100.00
38630;BME280;24384;51.988;4.644;2023-07-31T03:09:31;100839.94;;;16.23;100.00
38630;BME280;24384;51.988;4.644;2023-07-31T03:11:57;100849.38;;;16.28;100.00
38630;BME280;24384;51.988;4.644;2023-07-31T03:14:22;100848.44;;;16.29;100.00
38630;BME280;24384;51.988;4.644;2023-07-31T03:16:48;100841.06;;;16.35;100.00
38630;BME280;24384;51.988;4.644;2023-07-31T03:19:13;100853.56;;;16.33;100.00
38630;BME280;24384;51.988;4.644;2023-07-31T03:21:38;100843.09;;;16.29;100.00
38630;BME280;24384;51.988;4.644;2023-07-31T03:24:04;100847.81;;;16.40;100.00
38630;BME280;24384;51.988;4.644;2023-07-31T03:26:31;100855.22;;;16.35;100.00
38630;BME280;24384;51.988;4.644;2023-07-31T03:28:56;100832.19;;;16.34;100.00
38630;BME280;24384;51.988;4.644;2023-07-31T03:31:21;100830.41;;;16.35;100.00
38630;BME280;24384;51.988;4.644;2023-07-31T03:33:47;100834.00;;;16.34;100.00
38630;BME280;24384;51.988;4.644;2023-07-31T03:36:12;100834.28;;;16.29;100.00
38630;BME280;24384;51.988;4.644;2023-07-31T03:38:37;100843.44;;;16.39;100.00
38630;BME280;24384;51.988;4.644;2023-07-31T03:41:02;100843.28;;;16.26;100.00
38630;BME280;24384;51.988;4.644;2023-07-31T03:43:28;100840.34;;;16.31;100.00
38630;BME280;24384;51.988;4.644;2023-07-31T03:45:53;100841.66;;;16.24;100.00
38630;BME280;24384;51.988;4.644;2023-07-31T03:48:18;100826.41;;;16.11;100.00
38630;BME280;24384;51.988;4.644;2023-07-31T03:50:44;100820.38;;;15.92;100.00
38630;BME280;24384;51.988;4.644;2023-07-31T03:53:09;100815.56;;;15.83;100.00
38630;BME280;24384;51.988;4.644;2023-07-31T03:55:34;100822.34;;;15.72;100.00
38630;BME280;24384;51.988;4.644;2023-07-31T03:57:59;100826.34;;;15.64;100.00
38630;BME280;24384;51.988;4.644;2023-07-31T04:00:26;100810.41;;;15.64;100.00
38630;BME280;24384;51.988;4.644;2023-07-31T04:02:52;100814.25;;;15.58;100.00
38630;BME280;24384;51.988;4.644;2023-07-31T04:05:17;100809.00;;;15.56;100.00
38630;BME280;24384;51.988;4.644;2023-07-31T04:07:42;100808.66;;;15.63;100.00
38630;BME280;24384;51.988;4.644;2023-07-31T04:10:08;100808.16;;;15.56;100.00
38630;BME280;24384;51.988;4.644;2023-07-31T04:12:34;100807.22;;;15.57;100.00
38630;BME280;24384;51.988;4.644;2023-07-31T04:14:59;100798.88;;;15.47;100.00
38630;BME280;24384;51.988;4.644;2023-07-31T04:17:24;100798.53;;;15.53;100.00
38630;BME280;24384;51.988;4.644;2023-07-31T04:19:49;100791.78;;;15.48;100.00
38630;BME280;24384;51.988;4.644;2023-07-31T04:22:15;100787.72;;;15.40;100.00
38630;BME280;24384;51.988;4.644;2023-07-31T04:24:40;100784.66;;;15.48;100.00
38630;BME280;24384;51.988;4.644;2023-07-31T04:27:05;100787.47;;;15.45;100.00
38630;BME280;24384;51.988;4.644;2023-07-31T04:29:30;100791.16;;;15.43;100.00
38630;BME280;24384;51.988;4.644;2023-07-31T04:31:56;100776.59;;;15.50;100.00
38630;BME280;24384;51.988;4.644;2023-07-31T04:34:21;100790.38;;;15.40;100.00
38630;BME280;24384;51.988;4.644;2023-07-31T04:36:46;100782.41;;;15.40;100.00
38630;BME280;24384;51.988;4.644;2023-07-31T04:39:11;100783.69;;;15.33;100.00
38630;BME280;24384;51.988;4.644;2023-07-31T04:41:37;100778.28;;;15.35;100.00
38630;BME280;24384;51.988;4.644;2023-07-31T04:44:02;100772.88;;;15.36;100.00
38630;BME280;24384;51.988;4.644;2023-07-31T04:46:29;100769.63;;;15.31;100.00
38630;BME280;24384;51.988;4.644;2023-07-31T04:48:54;100766.19;;;15.29;100.00
38630;BME280;24384;51.988;4.644;2023-07-31T04:51:19;100772.28;;;15.31;100.00
38630;BME280;24384;51.988;4.644;2023-07-31T04:53:46;100764.31;;;15.31;100.00
38630;BME280;24384;51.988;4.644;2023-07-31T04:56:11;100776.41;;;15.37;100.00
38630;BME280;24384;51.988;4.644;2023-07-31T04:58:39;100766.03;;;15.32;100.00
38630;BME280;24384;51.988;4.644;2023-07-31T05:01:04;100766.13;;;15.31;100.00
38630;BME280;24384;51.988;4.644;2023-07-31T05:03:29;100763.88;;;15.23;100.00
38630;BME280;24384;51.988;4.644;2023-07-31T05:05:54;100761.31;;;15.21;100.00
38630;BME280;24384;51.988;4.644;2023-07-31T05:08:20;100751.88;;;15.32;100.00
38630;BME280;24384;51.988;4.644;2023-07-31T05:10:45;100759.25;;;15.27;100.00
38630;BME280;24384;51.988;4.644;2023-07-31T05:13:10;100743.66;;;15.36;100.00
38630;BME280;24384;51.988;4.644;2023-07-31T05:15:35;100745.38;;;15.37;100.00
38630;BME280;24384;51.988;4.644;2023-07-31T05:18:01;100744.63;;;15.35;100.00
38630;BME280;24384;51.988;4.644;2023-07-31T05:20:26;100732.09;;;15.37;100.00
38630;BME280;24384;51.988;4.644;2023-07-31T05:22:52;100739.03;;;15.40;100.00
38630;BME280;24384;51.988;4.644;2023-07-31T05:25:18;100734.16;;;15.32;100.00
38630;BME280;24384;51.988;4.644;2023-07-31T05:27:43;100732.44;;;15.31;100.00
38630;BME280;24384;51.988;4.644;2023-07-31T05:30:08;100731.66;;;15.29;100.00
38630;BME280;24384;51.988;4.644;2023-07-31T05:32:34;100721.03;;;15.29;100.00
38630;BME280;24384;51.988;4.644;2023-07-31T05:34:59;100724.19;;;15.36;100.00
38630;BME280;24384;51.988;4.644;2023-07-31T05:37:24;100717.06;;;15.36;100.00
38630;BME280;24384;51.988;4.644;2023-07-31T05:39:49;100720.19;;;15.45;100.00
38630;BME280;24384;51.988;4.644;2023-07-31T05:42:15;100712.47;;;15.40;100.00
38630;BME280;24384;51.988;4.644;2023-07-31T05:44:41;100712.47;;;15.40;100.00
38630;BME280;24384;51.988;4.644;2023-07-31T05:47:06;100715.63;;;15.47;100.00
38630;BME280;24384;51.988;4.644;2023-07-31T05:49:31;100711.44;;;15.43;100.00
38630;BME280;24384;51.988;4.644;2023-07-31T05:51:56;100704.41;;;15.42;100.00
38630;BME280;24384;51.988;4.644;2023-07-31T05:54:22;100702.69;;;15.40;100.00
38630;BME280;24384;51.988;4.644;2023-07-31T05:56:47;100687.59;;;15.41;100.00
38630;BME280;24384;51.988;4.644;2023-07-31T05:59:14;100693.44;;;15.48;100.00
38630;BME280;24384;51.988;4.644;2023-07-31T06:01:39;100694.38;;;15.47;100.00
38630;BME280;24384;51.988;4.644;2023-07-31T06:04:05;100696.69;;;15.53;100.00
38630;BME280;24384;51.988;4.644;2023-07-31T06:06:30;100696.44;;;15.57;100.00
38630;BME280;24384;51.988;4.644;2023-07-31T06:08:55;100684.16;;;15.55;100.00
38630;BME280;24384;51.988;4.644;2023-07-31T06:11:21;100695.75;;;15.54;100.00
38630;BME280;24384;51.988;4.644;2023-07-31T06:13:46;100693.84;;;15.56;100.00
38630;BME280;24384;51.988;4.644;2023-07-31T06:16:13;100689.13;;;15.61;100.00
38630;BME280;24384;51.988;4.644;2023-07-31T06:18:38;100683.56;;;15.66;100.00
38630;BME280;24384;51.988;4.644;2023-07-31T06:21:04;100686.31;;;15.64;100.00
38630;BME280;24384;51.988;4.644;2023-07-31T06:23:29;100685.44;;;15.64;100.00
38630;BME280;24384;51.988;4.644;2023-07-31T06:25:54;100684.84;;;15.74;100.00
38630;BME280;24384;51.988;4.644;2023-07-31T06:28:19;100678.84;;;15.87;100.00
38630;BME280;24384;51.988;4.644;2023-07-31T06:30:45;100676.53;;;15.81;100.00
38630;BME280;24384;51.988;4.644;2023-07-31T06:33:10;100677.13;;;15.86;100.00
38630;BME280;24384;51.988;4.644;2023-07-31T06:35:35;100670.09;;;15.85;100.00
38630;BME280;24384;51.988;4.644;2023-07-31T06:38:01;100668.88;;;15.74;100.00
38630;BME280;24384;51.988;4.644;2023-07-31T06:40:27;100677.13;;;15.86;100.00
38630;BME280;24384;51.988;4.644;2023-07-31T06:42:52;100668.22;;;15.87;100.00
38630;BME280;24384;51.988;4.644;2023-07-31T06:45:17;100665.25;;;15.77;100.00
38630;BME280;24384;51.988;4.644;2023-07-31T06:47:43;100661.44;;;15.81;100.00
38630;BME280;24384;51.988;4.644;2023-07-31T06:50:08;100662.19;;;15.83;100.00
38630;BME280;24384;51.988;4.644;2023-07-31T06:52:33;100653.00;;;15.89;100.00
38630;BME280;24384;51.988;4.644;2023-07-31T06:55:04;100672.84;;;15.83;100.00
38630;BME280;24384;51.988;4.644;2023-07-31T06:57:29;100651.47;;;15.85;100.00
38630;BME280;24384;51.988;4.644;2023-07-31T06:59:55;100645.41;;;15.83;100.00
38630;BME280;24384;51.988;4.644;2023-07-31T07:02:20;100653.19;;;15.86;100.00
38630;BME280;24384;51.988;4.644;2023-07-31T07:04:47;100657.66;;;15.85;100.00
38630;BME280;24384;51.988;4.644;2023-07-31T07:07:12;100651.03;;;15.92;100.00
38630;BME280;24384;51.988;4.644;2023-07-31T07:09:37;100659.69;;;15.96;100.00
38630;BME280;24384;51.988;4.644;2023-07-31T07:12:02;100654.97;;;16.01;100.00
38630;BME280;24384;51.988;4.644;2023-07-31T07:14:28;100656.06;;;15.97;100.00
38630;BME280;24384;51.988;4.644;2023-07-31T07:16:53;100651.19;;;16.05;100.00
38630;BME280;24384;51.988;4.644;2023-07-31T07:19:18;100648.69;;;16.02;100.00
38630;BME280;24384;51.988;4.644;2023-07-31T07:21:43;100662.66;;;16.06;100.00
38630;BME280;24384;51.988;4.644;2023-07-31T07:24:09;100649.63;;;16.01;100.00
38630;BME280;24384;51.988;4.644;2023-07-31T07:26:35;100644.13;;;16.04;100.00
38630;BME280;24384;51.988;4.644;2023-07-31T07:29:00;100655.72;;;16.03;100.00
38630;BME280;24384;51.988;4.644;2023-07-31T07:31:27;100650.91;;;16.10;100.00
38630;BME280;24384;51.988;4.644;2023-07-31T07:33:53;100643.94;;;16.07;100.00
38630;BME280;24384;51.988;4.644;2023-07-31T07:36:18;100658.16;;;16.22;100.00
38630;BME280;24384;51.988;4.644;2023-07-31T07:38:44;100655.59;;;16.21;100.00
38630;BME280;24384;51.988;4.644;2023-07-31T07:41:12;100653.88;;;16.20;100.00
38630;BME280;24384;51.988;4.644;2023-07-31T07:43:37;100656.44;;;16.21;100.00
38630;BME280;24384;51.988;4.644;2023-07-31T07:46:02;100658.53;;;16.16;100.00
38630;BME280;24384;51.988;4.644;2023-07-31T07:48:27;100655.78;;;16.18;100.00
38630;BME280;24384;51.988;4.644;2023-07-31T07:50:53;100653.69;;;16.23;100.00
38630;BME280;24384;51.988;4.644;2023-07-31T07:53:18;100656.16;;;16.26;100.00
38630;BME280;24384;51.988;4.644;2023-07-31T07:55:43;100652.28;;;16.32;100.00
38630;BME280;24384;51.988;4.644;2023-07-31T07:58:08;100645.91;;;16.34;100.00
38630;BME280;24384;51.988;4.644;2023-07-31T08:00:34;100646.13;;;16.45;100.00
38630;BME280;24384;51.988;4.644;2023-07-31T08:02:59;100652.47;;;16.43;100.00
38630;BME280;24384;51.988;4.644;2023-07-31T08:05:24;100647.44;;;16.38;100.00
38630;BME280;24384;51.988;4.644;2023-07-31T08:07:50;100639.84;;;16.46;100.00
38630;BME280;24384;51.988;4.644;2023-07-31T08:10:15;100629.38;;;16.43;100.00
38630;BME280;24384;51.988;4.644;2023-07-31T08:12:40;100643.19;;;16.50;100.00
38630;BME280;24384;51.988;4.644;2023-07-31T08:15:06;100638.81;;;16.49;100.00
38630;BME280;24384;51.988;4.644;2023-07-31T08:17:31;100628.91;;;16.51;100.00
38630;BME280;24384;51.988;4.644;2023-07-31T08:19:57;100634.31;;;16.50;100.00
38630;BME280;24384;51.988;4.644;2023-07-31T08:22:23;100638.16;;;16.45;100.00
38630;BME280;24384;51.988;4.644;2023-07-31T08:24:48;100635.66;;;16.42;100.00
38630;BME280;24384;51.988;4.644;2023-07-31T08:27:14;100633.47;;;16.49;100.00
38630;BME280;24384;51.988;4.644;2023-07-31T08:29:39;100633.66;;;16.46;100.00
38630;BME280;24384;51.988;4.644;2023-07-31T08:32:05;100637.06;;;16.48;100.00
38630;BME280;24384;51.988;4.644;2023-07-31T08:34:30;100631.09;;;16.44;100.00
38630;BME280;24384;51.988;4.644;2023-07-31T08:36:55;100635.28;;;16.49;100.00
38630;BME280;24384;51.988;4.644;2023-07-31T08:39:20;100634.03;;;16.54;100.00
38630;BME280;24384;51.988;4.644;2023-07-31T08:41:47;100623.59;;;16.65;100.00
38630;BME280;24384;51.988;4.644;2023-07-31T08:44:13;100631.09;;;16.59;100.00
38630;BME280;24384;51.988;4.644;2023-07-31T08:46:39;100629.59;;;16.69;100.00
38630;BME280;24384;51.988;4.644;2023-07-31T08:49:05;100617.22;;;16.68;100.00
38630;BME280;24384;51.988;4.644;2023-07-31T08:51:34;100627.50;;;16.60;100.00
38630;BME280;24384;51.988;4.644;2023-07-31T08:53:59;100626.53;;;16.75;100.00
38630;BME280;24384;51.988;4.644;2023-07-31T08:56:27;100620.94;;;16.80;100.00
38630;BME280;24384;51.988;4.644;2023-07-31T08:58:54;100626.25;;;16.80;100.00
38630;BME280;24384;51.988;4.644;2023-07-31T09:01:20;100626.75;;;16.87;100.00
38630;BME280;24384;51.988;4.644;2023-07-31T09:03:47;100629.41;;;16.87;100.00
38630;BME280;24384;51.988;4.644;2023-07-31T09:06:13;100633.13;;;16.98;100.00
38630;BME280;24384;51.988;4.644;2023-07-31T09:08:41;100628.09;;;16.94;100.00
38630;BME280;24384;51.988;4.644;2023-07-31T09:11:07;100626.38;;;16.93;100.00
38630;BME280;24384;51.988;4.644;2023-07-31T09:13:33;100625.91;;;16.86;100.00
38630;BME280;24384;51.988;4.644;2023-07-31T09:15:58;100621.59;;;16.83;100.00
38630;BME280;24384;51.988;4.644;2023-07-31T09:18:24;100614.94;;;16.76;100.00
38630;BME280;24384;51.988;4.644;2023-07-31T09:21:05;100624.00;;;16.88;100.00
38630;BME280;24384;51.988;4.644;2023-07-31T09:23:43;100623.50;;;16.96;100.00
38630;BME280;24384;51.988;4.644;2023-07-31T09:26:09;100624.47;;;16.95;100.00
38630;BME280;24384;51.988;4.644;2023-07-31T09:28:34;100625.53;;;16.92;100.00
38630;BME280;24384;51.988;4.644;2023-07-31T09:31:00;100617.53;;;16.92;100.00
38630;BME280;24384;51.988;4.644;2023-07-31T09:33:25;100613.03;;;17.07;100.00
38630;BME280;24384;51.988;4.644;2023-07-31T09:35:52;100616.06;;;17.15;100.00
38630;BME280;24384;51.988;4.644;2023-07-31T09:38:17;100620.25;;;17.05;100.00
38630;BME280;24384;51.988;4.644;2023-07-31T09:40:45;100603.69;;;17.14;100.00
38630;BME280;24384;51.988;4.644;2023-07-31T09:43:12;100610.28;;;17.09;100.00
38630;BME280;24384;51.988;4.644;2023-07-31T09:45:40;100609.41;;;17.08;100.00
38630;BME280;24384;51.988;4.644;2023-07-31T09:48:09;100606.94;;;17.05;100.00
38630;BME280;24384;51.988;4.644;2023-07-31T09:50:39;100605.50;;;17.14;100.00
38630;BME280;24384;51.988;4.644;2023-07-31T09:53:06;100601.59;;;17.05;100.00
38630;BME280;24384;51.988;4.644;2023-07-31T09:55:31;100594.00;;;17.13;100.00
38630;BME280;24384;51.988;4.644;2023-07-31T09:57:57;100601.78;;;17.16;100.00
38630;BME280;24384;51.988;4.644;2023-07-31T10:00:23;100602.63;;;17.17;100.00
38630;BME280;24384;51.988;4.644;2023-07-31T10:02:50;100600.81;;;17.17;100.00
38630;BME280;24384;51.988;4.644;2023-07-31T10:05:16;100605.44;;;17.28;100.00
38630;BME280;24384;51.988;4.644;2023-07-31T10:07:48;100598.84;;;17.21;100.00
38630;BME280;24384;51.988;4.644;2023-07-31T10:10:15;100607.78;;;17.20;100.00
38630;BME280;24384;51.988;4.644;2023-07-31T10:12:41;100602.59;;;17.31;100.00
38630;BME280;24384;51.988;4.644;2023-07-31T10:15:08;100606.22;;;17.30;100.00
38630;BME280;24384;51.988;4.644;2023-07-31T10:17:35;100612.09;;;17.35;100.00
38630;BME280;24384;51.988;4.644;2023-07-31T10:20:02;100609.88;;;17.42;100.00
38630;BME280;24384;51.988;4.644;2023-07-31T10:22:31;100610.88;;;17.41;100.00
38630;BME280;24384;51.988;4.644;2023-07-31T10:24:58;100606.19;;;17.45;100.00
38630;BME280;24384;51.988;4.644;2023-07-31T10:27:24;100613.66;;;17.52;100.00
38630;BME280;24384;51.988;4.644;2023-07-31T10:29:50;100615.13;;;17.44;100.00
38630;BME280;24384;51.988;4.644;2023-07-31T10:32:17;100612.00;;;17.37;100.00
38630;BME280;24384;51.988;4.644;2023-07-31T10:34:42;100618.47;;;17.47;100.00
38630;BME280;24384;51.988;4.644;2023-07-31T10:40:00;100616.22;;;17.54;100.00
38630;BME280;24384;51.988;4.644;2023-07-31T10:42:31;100606.72;;;17.50;100.00
38630;BME280;24384;51.988;4.644;2023-07-31T10:44:58;100609.78;;;17.44;100.00
38630;BME280;24384;51.988;4.644;2023-07-31T10:47:24;100601.78;;;17.44;100.00
38630;BME280;24384;51.988;4.644;2023-07-31T10:49:50;100604.56;;;17.42;100.00
38630;BME280;24384;51.988;4.644;2023-07-31T10:52:20;100600.53;;;17.49;100.00
38630;BME280;24384;51.988;4.644;2023-07-31T10:54:48;100607.78;;;17.47;100.00
38630;BME280;24384;51.988;4.644;2023-07-31T10:57:19;100605.13;;;17.47;100.00
38630;BME280;24384;51.988;4.644;2023-07-31T10:59:45;100603.41;;;17.46;100.00
38630;BME280;24384;51.988;4.644;2023-07-31T11:02:24;100597.47;;;17.56;100.00
38630;BME280;24384;51.988;4.644;2023-07-31T11:05:09;100599.50;;;17.52;100.00
38630;BME280;24384;51.988;4.644;2023-07-31T11:07:49;100597.66;;;17.52;100.00
38630;BME280;24384;51.988;4.644;2023-07-31T11:10:18;100590.69;;;17.64;100.00
38630;BME280;24384;51.988;4.644;2023-07-31T11:12:45;100590.81;;;17.76;100.00
38630;BME280;24384;51.988;4.644;2023-07-31T11:15:12;100591.72;;;17.62;100.00
38630;BME280;24384;51.988;4.644;2023-07-31T11:17:39;100577.03;;;17.69;100.00
38630;BME280;24384;51.988;4.644;2023-07-31T11:20:05;100581.97;;;17.75;100.00
38630;BME280;24384;51.988;4.644;2023-07-31T11:22:32;100569.47;;;17.76;100.00
38630;BME280;24384;51.988;4.644;2023-07-31T11:24:57;100578.66;;;17.84;100.00
38630;BME280;24384;51.988;4.644;2023-07-31T11:27:23;100580.78;;;17.79;100.00
38630;BME280;24384;51.988;4.644;2023-07-31T11:29:50;100573.19;;;17.73;100.00
38630;BME280;24384;51.988;4.644;2023-07-31T11:32:16;100566.56;;;17.66;100.00
38630;BME280;24384;51.988;4.644;2023-07-31T11:34:55;100582.16;;;17.72;100.00
38630;BME280;24384;51.988;4.644;2023-07-31T11:37:20;100566.91;;;17.74;100.00
38630;BME280;24384;51.988;4.644;2023-07-31T11:40:01;100570.88;;;17.81;100.00
38630;BME280;24384;51.988;4.644;2023-07-31T11:42:27;100572.34;;;17.72;100.00
38630;BME280;24384;51.988;4.644;2023-07-31T11:44:52;100573.19;;;17.73;100.00
38630;BME280;24384;51.988;4.644;2023-07-31T11:47:17;100575.53;;;17.78;100.00
38630;BME280;24384;51.988;4.644;2023-07-31T11:49:43;100580.13;;;17.76;100.00
38630;BME280;24384;51.988;4.644;2023-07-31T11:52:10;100577.25;;;17.66;100.00
38630;BME280;24384;51.988;4.644;2023-07-31T11:54:36;100596.22;;;17.61;100.00
38630;BME280;24384;51.988;4.644;2023-07-31T11:57:03;100601.97;;;17.68;100.00
38630;BME280;24384;51.988;4.644;2023-07-31T11:59:29;100590.28;;;17.70;100.00
38630;BME280;24384;51.988;4.644;2023-07-31T12:01:54;100573.53;;;17.81;100.00
38630;BME280;24384;51.988;4.644;2023-07-31T12:04:20;100585.41;;;17.90;100.00
38630;BME280;24384;51.988;4.644;2023-07-31T12:06:47;100584.78;;;17.99;100.00
38630;BME280;24384;51.988;4.644;2023-07-31T12:09:14;100566.97;;;18.13;100.00
38630;BME280;24384;51.988;4.644;2023-07-31T12:11:44;100561.97;;;18.34;100.00
38630;BME280;24384;51.988;4.644;2023-07-31T12:14:31;100554.28;;;18.42;100.00
38630;BME280;24384;51.988;4.644;2023-07-31T12:16:59;100553.81;;;18.61;100.00
38630;BME280;24384;51.988;4.644;2023-07-31T12:19:25;100556.59;;;18.59;100.00
38630;BME280;24384;51.988;4.644;2023-07-31T12:21:53;100562.16;;;18.56;100.00
38630;BME280;24384;51.988;4.644;2023-07-31T12:24:19;100548.28;;;18.51;100.00
38630;BME280;24384;51.988;4.644;2023-07-31T12:26:45;100549.16;;;18.39;100.00
38630;BME280;24384;51.988;4.644;2023-07-31T12:29:11;100540.72;;;18.45;100.00
38630;BME280;24384;51.988;4.644;2023-07-31T12:31:36;100538.47;;;18.39;100.00
38630;BME280;24384;51.988;4.644;2023-07-31T12:34:02;100549.28;;;18.24;100.00
38630;BME280;24384;51.988;4.644;2023-07-31T12:36:28;100539.84;;;18.32;100.00
38630;BME280;24384;51.988;4.644;2023-07-31T12:38:55;100546.06;;;18.32;100.00
38630;BME280;24384;51.988;4.644;2023-07-31T12:41:23;100529.28;;;18.30;100.00